createdAt,value
2018-01-22T00:00:09.867Z,-0.70
2018-01-22T00:02:37.016Z,-0.60
2018-01-22T00:05:03.443Z,-0.60
2018-01-22T00:07:29.805Z,-0.50
2018-01-22T00:09:56.315Z,-0.50
2018-01-22T00:12:22.640Z,-0.60
2018-01-22T00:14:48.972Z,-0.50
2018-01-22T00:17:15.335Z,-0.50
2018-01-22T00:19:41.669Z,-0.50
2018-01-22T00:22:08.083Z,-0.50
2018-01-22T00:24:34.415Z,-0.50
2018-01-22T00:27:00.766Z,-0.40
2018-01-22T00:29:27.160Z,-0.30
2018-01-22T00:31:53.536Z,-0.20
2018-01-22T00:34:20.634Z,-0.10
2018-01-22T00:36:47.002Z,-0.10
2018-01-22T00:39:13.341Z,0.00
2018-01-22T00:41:40.322Z,0.00
2018-01-22T00:44:07.398Z,0.00
2018-01-22T00:46:33.770Z,0.00
2018-01-22T00:49:00.122Z,0.00
2018-01-22T00:51:27.208Z,0.10
2018-01-22T00:53:53.539Z,0.10
2018-01-22T00:56:19.886Z,0.00
2018-01-22T00:58:46.226Z,0.10
2018-01-22T01:01:12.578Z,0.10
2018-01-22T01:03:38.922Z,0.00
2018-01-22T01:06:05.264Z,0.00
2018-01-22T01:08:31.638Z,-0.20
2018-01-22T01:10:57.962Z,-0.20
2018-01-22T01:13:24.307Z,-0.20
2018-01-22T01:15:50.651Z,-0.20
2018-01-22T01:18:17.031Z,-0.10
2018-01-22T01:20:43.384Z,-0.10
2018-01-22T01:23:09.717Z,0.00
2018-01-22T01:25:36.059Z,-0.10
2018-01-22T01:28:02.427Z,-0.10
2018-01-22T01:30:28.814Z,-0.10
2018-01-22T01:32:55.158Z,-0.10
2018-01-22T01:35:21.482Z,-0.10
2018-01-22T01:37:47.819Z,0.00
2018-01-22T01:40:14.154Z,0.10
2018-01-22T01:42:40.530Z,0.10
2018-01-22T01:45:07.626Z,0.10
2018-01-22T01:47:33.961Z,0.10
2018-01-22T01:50:00.299Z,0.10
2018-01-22T01:52:26.650Z,0.10
2018-01-22T01:54:52.979Z,0.00
2018-01-22T01:57:19.346Z,0.00
2018-01-22T01:59:46.402Z,0.10
2018-01-22T02:02:12.773Z,0.10
2018-01-22T02:04:39.127Z,0.10
2018-01-22T02:07:05.470Z,0.20
2018-01-22T02:09:32.576Z,0.20
2018-01-22T02:11:58.915Z,0.20
2018-01-22T02:14:25.332Z,0.10
2018-01-22T02:16:51.662Z,0.00
2018-01-22T02:19:18.030Z,0.10
2018-01-22T02:21:44.365Z,0.10
2018-01-22T02:24:10.715Z,0.20
2018-01-22T02:26:38.282Z,0.20
2018-01-22T02:29:05.372Z,0.30
2018-01-22T02:31:31.714Z,0.30
2018-01-22T02:33:58.043Z,0.40
2018-01-22T02:36:24.958Z,0.40
2018-01-22T02:38:51.310Z,0.30
2018-01-22T02:41:17.634Z,0.30
2018-01-22T02:43:43.958Z,0.30
2018-01-22T02:46:10.299Z,0.30
2018-01-22T02:48:36.673Z,0.30
2018-01-22T02:51:02.994Z,0.20
2018-01-22T02:53:29.391Z,0.20
2018-01-22T02:55:57.151Z,0.20
2018-01-22T02:58:27.175Z,0.20
2018-01-22T03:00:54.339Z,0.10
2018-01-22T03:03:20.691Z,0.10
2018-01-22T03:05:47.006Z,0.10
2018-01-22T03:08:13.335Z,0.10
2018-01-22T03:10:39.663Z,0.10
2018-01-22T03:13:06.034Z,0.10
2018-01-22T03:15:33.119Z,0.30
2018-01-22T03:17:59.470Z,0.20
2018-01-22T03:20:25.828Z,0.20
2018-01-22T03:22:52.164Z,0.30
2018-01-22T03:25:19.550Z,0.20
2018-01-22T03:27:45.875Z,0.20
2018-01-22T03:30:12.964Z,0.20
2018-01-22T03:32:39.373Z,0.20
2018-01-22T03:35:05.715Z,0.20
2018-01-22T03:37:32.099Z,0.20
2018-01-22T03:39:58.434Z,0.20
2018-01-22T03:42:25.543Z,0.30
2018-01-22T03:44:51.878Z,0.20
2018-01-22T03:47:18.219Z,0.30
2018-01-22T03:49:44.566Z,0.40
2018-01-22T03:52:10.903Z,0.50
2018-01-22T03:54:37.242Z,0.60
2018-01-22T03:57:05.061Z,0.60
2018-01-22T03:59:31.395Z,0.50
2018-01-22T04:01:57.765Z,0.50
2018-01-22T04:04:24.123Z,0.50
2018-01-22T04:06:50.451Z,0.50
2018-01-22T04:09:16.791Z,0.50
2018-01-22T04:11:43.134Z,0.60
2018-01-22T04:14:09.511Z,0.60
2018-01-22T04:16:36.596Z,0.30
2018-01-22T04:19:02.987Z,0.30
2018-01-22T04:21:29.319Z,0.40
2018-01-22T04:23:55.663Z,0.50
2018-01-22T04:26:22.002Z,0.30
2018-01-22T04:28:49.086Z,0.10
2018-01-22T04:31:16.007Z,0.10
2018-01-22T04:33:43.078Z,0.10
2018-01-22T04:36:09.616Z,0.10
2018-01-22T04:38:35.975Z,0.10
2018-01-22T04:41:02.306Z,0.00
2018-01-22T04:43:28.632Z,0.10
2018-01-22T04:45:54.974Z,0.10
2018-01-22T04:48:21.330Z,0.10
2018-01-22T04:50:48.430Z,0.30
2018-01-22T04:53:14.774Z,0.20
2018-01-22T04:55:41.118Z,0.20
2018-01-22T04:58:07.439Z,0.10
2018-01-22T05:00:33.767Z,0.10
2018-01-22T05:03:00.138Z,0.00
2018-01-22T05:05:28.230Z,0.00
2018-01-22T05:07:54.595Z,-0.10
2018-01-22T05:10:20.938Z,0.00
2018-01-22T05:12:47.290Z,-0.10
2018-01-22T05:15:17.645Z,-0.10
2018-01-22T05:17:43.981Z,0.00
2018-01-22T05:20:10.366Z,-0.10
2018-01-22T05:22:36.730Z,-0.10
2018-01-22T05:25:03.846Z,-0.10
2018-01-22T05:27:30.184Z,-0.20
2018-01-22T05:29:56.502Z,-0.10
2018-01-22T05:32:22.851Z,0.00
2018-01-22T05:34:49.931Z,0.00
2018-01-22T05:37:16.288Z,0.00
2018-01-22T05:39:42.650Z,0.00
2018-01-22T05:42:09.051Z,0.00
2018-01-22T05:44:35.395Z,0.10
2018-01-22T05:47:01.726Z,0.20
2018-01-22T05:49:28.046Z,0.20
2018-01-22T05:51:55.546Z,0.30
2018-01-22T05:54:21.887Z,0.30
2018-01-22T05:56:49.239Z,0.30
2018-01-22T05:59:16.385Z,0.40
2018-01-22T06:01:42.722Z,0.40
2018-01-22T06:04:10.828Z,0.30
2018-01-22T06:06:37.247Z,0.30
2018-01-22T06:09:03.667Z,0.40
2018-01-22T06:11:30.735Z,0.20
2018-01-22T06:13:57.063Z,0.20
2018-01-22T06:16:23.408Z,0.20
2018-01-22T06:18:49.747Z,0.30
2018-01-22T06:21:16.079Z,0.30
2018-01-22T06:23:42.410Z,0.30
2018-01-22T06:26:08.774Z,0.30
2018-01-22T06:28:36.295Z,0.30
2018-01-22T06:31:02.634Z,0.40
2018-01-22T06:33:28.973Z,0.40
2018-01-22T06:35:56.305Z,0.40
2018-01-22T06:38:22.676Z,0.40
2018-01-22T06:40:49.027Z,0.40
2018-01-22T06:43:15.362Z,0.40
2018-01-22T06:45:43.172Z,0.60
2018-01-22T06:48:09.511Z,0.60
2018-01-22T06:50:35.854Z,0.60
2018-01-22T06:53:02.231Z,0.60
2018-01-22T06:55:29.308Z,0.70
2018-01-22T06:57:55.651Z,0.70
2018-01-22T07:00:21.987Z,0.60
2018-01-22T07:02:48.322Z,0.80
2018-01-22T07:05:14.702Z,0.80
2018-01-22T07:07:41.777Z,1.00
2018-01-22T07:10:08.139Z,0.90
2018-01-22T07:12:34.478Z,1.00
2018-01-22T07:15:00.821Z,0.90
2018-01-22T07:17:30.370Z,1.00
2018-01-22T07:19:56.721Z,1.00
2018-01-22T07:22:23.054Z,1.00
2018-01-22T07:24:49.398Z,1.10
2018-01-22T07:27:16.411Z,1.10
2018-01-22T07:29:42.786Z,1.00
2018-01-22T07:32:09.134Z,1.10
2018-01-22T07:34:35.459Z,1.10
2018-01-22T07:37:01.794Z,1.10
2018-01-22T07:39:28.118Z,1.10
2018-01-22T07:41:54.443Z,1.10
2018-01-22T07:44:20.778Z,1.00
2018-01-22T07:46:47.110Z,1.00
2018-01-22T07:49:13.456Z,1.00
2018-01-22T07:51:39.815Z,1.00
2018-01-22T07:54:06.150Z,1.20
2018-01-22T07:56:32.507Z,1.20
2018-01-22T07:58:58.884Z,1.30
2018-01-22T08:01:25.306Z,1.40
2018-01-22T08:03:51.639Z,1.60
2018-01-22T08:06:18.014Z,1.60
2018-01-22T08:08:44.354Z,1.60
2018-01-22T08:11:11.717Z,1.70
2018-01-22T08:13:38.063Z,1.80
2018-01-22T08:16:04.446Z,1.80
2018-01-22T08:18:31.543Z,1.90
2018-01-22T08:20:57.906Z,1.90
2018-01-22T08:23:24.284Z,2.00
2018-01-22T08:25:50.640Z,2.10
2018-01-22T08:28:16.986Z,2.20
2018-01-22T08:30:43.346Z,2.30
2018-01-22T08:33:10.474Z,2.30
2018-01-22T08:35:36.840Z,2.30
2018-01-22T08:38:03.210Z,2.40
2018-01-22T08:40:30.559Z,2.40
2018-01-22T08:42:56.907Z,2.30
2018-01-22T08:45:23.238Z,2.50
2018-01-22T08:47:49.575Z,2.50
2018-01-22T08:50:15.891Z,2.70
2018-01-22T08:52:42.218Z,2.80
2018-01-22T08:55:08.578Z,2.90
2018-01-22T08:57:34.906Z,2.80
2018-01-22T09:00:01.234Z,3.00
2018-01-22T09:02:27.562Z,3.00
2018-01-22T09:04:53.886Z,3.10
2018-01-22T09:07:20.239Z,3.10
2018-01-22T09:09:46.566Z,3.00
2018-01-22T09:12:12.906Z,2.90
2018-01-22T09:14:39.993Z,3.00
2018-01-22T09:17:06.366Z,3.00
2018-01-22T09:19:32.691Z,3.20
2018-01-22T09:21:59.057Z,3.30
2018-01-22T09:24:26.125Z,3.60
2018-01-22T09:26:52.505Z,3.60
2018-01-22T09:29:18.847Z,3.80
2018-01-22T09:31:45.186Z,3.90
2018-01-22T09:34:11.526Z,3.80
2018-01-22T09:36:38.635Z,3.80
2018-01-22T09:39:05.703Z,3.80
2018-01-22T09:41:33.049Z,3.70
2018-01-22T09:44:01.123Z,3.70
2018-01-22T09:46:28.246Z,3.70
2018-01-22T09:48:54.623Z,3.70
2018-01-22T09:51:22.215Z,3.90
2018-01-22T09:53:48.577Z,3.90
2018-01-22T09:56:14.943Z,4.10
2018-01-22T09:58:41.282Z,4.30
2018-01-22T10:01:08.383Z,4.70
2018-01-22T10:03:34.730Z,4.60
2018-01-22T10:06:01.086Z,4.70
2018-01-22T10:08:27.407Z,4.70
2018-01-22T10:10:53.786Z,4.60
2018-01-22T10:13:20.114Z,4.70
2018-01-22T10:15:46.467Z,4.70
2018-01-22T10:18:12.790Z,4.60
2018-01-22T10:20:39.142Z,4.70
2018-01-22T10:23:05.469Z,4.80
2018-01-22T10:25:31.822Z,4.90
2018-01-22T10:27:58.160Z,5.00
2018-01-22T10:30:24.514Z,4.90
2018-01-22T10:32:51.582Z,5.00
2018-01-22T10:35:17.907Z,4.90
2018-01-22T10:37:45.000Z,5.00
2018-01-22T10:40:11.335Z,5.00
2018-01-22T10:42:37.662Z,5.00
2018-01-22T10:45:04.046Z,5.10
2018-01-22T10:47:30.394Z,5.10
2018-01-22T10:49:56.763Z,5.20
2018-01-22T10:52:23.083Z,5.30
2018-01-22T10:54:49.423Z,5.30
2018-01-22T10:57:15.786Z,5.40
2018-01-22T10:59:42.855Z,5.50
2018-01-22T11:02:09.199Z,5.50
2018-01-22T11:04:35.566Z,5.50
2018-01-22T11:07:01.958Z,5.50
2018-01-22T11:09:28.285Z,5.60
2018-01-22T11:11:54.610Z,5.80
2018-01-22T11:14:20.943Z,5.90
2018-01-22T11:16:47.266Z,5.90
2018-01-22T11:19:13.594Z,6.00
2018-01-22T11:21:39.947Z,6.10
2018-01-22T11:24:06.311Z,6.10
2018-01-22T11:26:32.642Z,6.20
2018-01-22T11:28:58.961Z,6.20
2018-01-22T11:31:25.328Z,6.20
2018-01-22T11:33:51.647Z,6.20
2018-01-22T11:36:17.968Z,6.30
2018-01-22T11:38:44.310Z,6.40
2018-01-22T11:41:10.690Z,6.50
2018-01-22T11:43:37.037Z,6.60
2018-01-22T11:46:03.406Z,6.70
2018-01-22T11:48:30.487Z,6.90
2018-01-22T11:50:58.468Z,6.90
2018-01-22T11:53:24.895Z,6.90
2018-01-22T11:55:51.259Z,6.90
2018-01-22T11:58:17.601Z,6.90
2018-01-22T12:00:43.983Z,6.90
2018-01-22T12:03:10.403Z,6.90
2018-01-22T12:05:37.486Z,7.00
2018-01-22T12:08:03.817Z,7.00
2018-01-22T12:10:30.143Z,6.90
2018-01-22T12:12:56.468Z,6.90
2018-01-22T12:15:23.823Z,7.00
2018-01-22T12:17:50.220Z,6.90
2018-01-22T12:20:17.361Z,7.10
2018-01-22T12:22:43.674Z,7.10
2018-01-22T12:25:10.050Z,7.10
2018-01-22T12:27:36.392Z,7.00
2018-01-22T12:30:02.775Z,7.00
2018-01-22T12:32:29.854Z,6.90
2018-01-22T12:34:56.938Z,6.90
2018-01-22T12:37:23.282Z,6.90
2018-01-22T12:39:49.631Z,7.00
2018-01-22T12:42:16.007Z,7.00
2018-01-22T12:44:42.365Z,7.10
2018-01-22T12:47:08.714Z,7.10
2018-01-22T12:49:35.237Z,7.10
2018-01-22T12:52:01.591Z,7.20
2018-01-22T12:54:28.688Z,7.00
2018-01-22T12:56:55.034Z,7.00
2018-01-22T12:59:21.363Z,7.00
2018-01-22T13:01:49.726Z,6.90
2018-01-22T13:04:16.369Z,6.80
2018-01-22T13:06:42.710Z,6.80
2018-01-22T13:09:09.090Z,6.80
2018-01-22T13:11:35.507Z,6.70
2018-01-22T13:14:01.867Z,6.70
2018-01-22T13:16:28.935Z,6.70
2018-01-22T13:18:55.276Z,6.70
2018-01-22T13:21:21.607Z,6.70
2018-01-22T13:23:47.975Z,6.60
2018-01-22T13:26:14.302Z,6.60
2018-01-22T13:28:40.701Z,6.50
2018-01-22T13:31:07.787Z,6.40
2018-01-22T13:33:34.135Z,6.40
2018-01-22T13:36:01.798Z,6.40
2018-01-22T13:38:28.141Z,6.40
2018-01-22T13:41:00.619Z,6.40
2018-01-22T13:43:26.971Z,6.40
2018-01-22T13:45:54.044Z,6.30
2018-01-22T13:48:21.134Z,6.20
2018-01-22T13:50:47.486Z,6.20
2018-01-22T13:53:13.843Z,6.20
2018-01-22T13:55:40.158Z,6.10
2018-01-22T13:58:06.502Z,6.10
2018-01-22T14:00:32.849Z,6.10
2018-01-22T14:03:00.147Z,6.00
2018-01-22T14:05:26.479Z,6.00
2018-01-22T14:07:52.855Z,6.00
2018-01-22T14:10:19.194Z,6.00
2018-01-22T14:12:46.570Z,6.00
2018-01-22T14:15:14.147Z,5.90
2018-01-22T14:17:41.579Z,5.90
2018-01-22T14:20:23.618Z,5.80
2018-01-22T14:22:51.162Z,5.70
2018-01-22T14:25:17.499Z,5.70
2018-01-22T14:27:44.638Z,5.70
2018-01-22T14:30:12.003Z,5.70
2018-01-22T14:32:38.399Z,5.70
2018-01-22T14:35:05.468Z,5.50
2018-01-22T14:37:32.570Z,5.50
2018-01-22T14:39:59.498Z,5.50
2018-01-22T14:42:25.851Z,5.50
2018-01-22T14:44:52.175Z,5.50
2018-01-22T14:47:18.546Z,5.40
2018-01-22T14:49:45.625Z,5.40
2018-01-22T14:52:11.972Z,5.40
2018-01-22T14:54:38.311Z,5.50
2018-01-22T14:57:04.667Z,5.40
2018-01-22T14:59:31.739Z,5.40
2018-01-22T15:01:58.091Z,5.40
2018-01-22T15:04:24.443Z,5.40
2018-01-22T15:06:50.806Z,5.50
2018-01-22T15:09:17.902Z,5.50
2018-01-22T15:11:44.251Z,5.50
2018-01-22T15:14:10.634Z,5.60
2018-01-22T15:16:37.729Z,5.70
2018-01-22T15:19:04.130Z,5.60
2018-01-22T15:21:30.491Z,5.70
2018-01-22T15:23:56.834Z,5.60
2018-01-22T15:26:23.166Z,5.70
2018-01-22T15:28:49.555Z,5.70
2018-01-22T15:31:15.896Z,5.70
2018-01-22T15:33:42.282Z,5.70
2018-01-22T15:36:08.646Z,5.70
2018-01-22T15:38:35.105Z,5.70
2018-01-22T15:41:01.507Z,5.70
2018-01-22T15:43:27.882Z,5.60
2018-01-22T15:45:54.234Z,5.70
2018-01-22T15:48:20.579Z,5.70
2018-01-22T15:50:46.924Z,5.70
2018-01-22T15:53:14.010Z,5.70
2018-01-22T15:55:40.351Z,5.70
2018-01-22T15:58:06.714Z,5.80
2018-01-22T16:00:33.051Z,5.70
2018-01-22T16:02:59.435Z,5.70
2018-01-22T16:05:25.790Z,5.80
2018-01-22T16:07:52.215Z,5.90
2018-01-22T16:10:19.573Z,5.80
2018-01-22T16:12:46.643Z,5.80
2018-01-22T16:15:12.974Z,5.70
2018-01-22T16:17:39.403Z,5.60
2018-01-22T16:20:05.723Z,5.60
2018-01-22T16:22:32.070Z,5.70
2018-01-22T16:24:58.395Z,5.60
2018-01-22T16:27:24.746Z,5.60
2018-01-22T16:29:51.835Z,5.70
2018-01-22T16:32:18.202Z,5.70
2018-01-22T16:34:44.904Z,5.70
2018-01-22T16:37:11.246Z,5.60
2018-01-22T16:39:37.593Z,5.60
2018-01-22T16:42:03.943Z,5.60
2018-01-22T16:44:30.362Z,5.60
2018-01-22T16:47:02.950Z,5.60
2018-01-22T16:49:29.274Z,5.80
2018-01-22T16:51:56.366Z,5.90
2018-01-22T16:54:22.698Z,5.80
2018-01-22T16:56:49.049Z,5.80
2018-01-22T16:59:15.407Z,5.80
2018-01-22T17:01:41.729Z,5.80
2018-01-22T17:04:08.074Z,5.80
2018-01-22T17:06:34.415Z,5.90
2018-01-22T17:09:00.767Z,5.80
2018-01-22T17:11:27.863Z,5.70
2018-01-22T17:13:54.218Z,5.60
2018-01-22T17:16:20.548Z,5.50
2018-01-22T17:18:46.906Z,5.50
2018-01-22T17:21:13.266Z,5.50
2018-01-22T17:23:39.623Z,5.50
2018-01-22T17:26:06.010Z,5.40
2018-01-22T17:28:33.114Z,5.50
2018-01-22T17:30:59.466Z,5.50
2018-01-22T17:33:25.789Z,5.50
2018-01-22T17:35:53.180Z,5.60
2018-01-22T17:38:20.291Z,5.80
2018-01-22T17:40:46.642Z,5.80
2018-01-22T17:43:13.010Z,5.70
2018-01-22T17:45:39.334Z,5.70
2018-01-22T17:48:05.726Z,5.60
2018-01-22T17:50:32.059Z,5.60
2018-01-22T17:52:58.410Z,5.60
2018-01-22T17:55:25.476Z,5.70
2018-01-22T17:57:51.886Z,5.70
2018-01-22T18:00:18.242Z,5.80
2018-01-22T18:02:44.587Z,5.70
2018-01-22T18:05:10.983Z,5.70
2018-01-22T18:07:38.123Z,5.80
2018-01-22T18:10:04.455Z,5.70
2018-01-22T18:12:30.797Z,5.60
2018-01-22T18:14:57.900Z,5.50
2018-01-22T18:17:24.226Z,5.50
2018-01-22T18:19:50.594Z,5.50
2018-01-22T18:22:16.942Z,5.40
2018-01-22T18:24:44.020Z,5.50
2018-01-22T18:27:10.478Z,5.50
2018-01-22T18:29:36.802Z,5.60
2018-01-22T18:32:04.201Z,5.60
2018-01-22T18:34:31.266Z,5.60
2018-01-22T18:36:58.379Z,5.60
2018-01-22T18:39:24.719Z,5.60
2018-01-22T18:41:52.533Z,5.60
2018-01-22T18:44:18.859Z,5.60
2018-01-22T18:46:45.231Z,5.60
2018-01-22T18:49:11.568Z,5.60
2018-01-22T18:51:37.898Z,5.60
2018-01-22T18:54:04.235Z,5.60
2018-01-22T18:56:30.778Z,5.60
2018-01-22T18:58:57.106Z,5.60
2018-01-22T19:01:23.690Z,5.50
2018-01-22T19:03:50.038Z,5.50
2018-01-22T19:06:16.395Z,5.50
2018-01-22T19:08:43.594Z,5.60
2018-01-22T19:11:09.970Z,5.60
2018-01-22T19:13:36.298Z,5.60
2018-01-22T19:16:02.630Z,5.60
2018-01-22T19:18:28.954Z,5.60
2018-01-22T19:20:55.286Z,5.70
2018-01-22T19:23:21.634Z,5.60
2018-01-22T19:25:47.954Z,5.60
2018-01-22T19:28:14.306Z,5.60
2018-01-22T19:30:40.636Z,5.60
2018-01-22T19:33:07.714Z,5.80
2018-01-22T19:35:34.079Z,5.80
2018-01-22T19:38:00.472Z,5.60
2018-01-22T19:40:27.583Z,5.60
2018-01-22T19:42:53.930Z,5.60
2018-01-22T19:45:20.271Z,5.60
2018-01-22T19:47:48.284Z,5.60
2018-01-22T19:50:14.619Z,5.60
2018-01-22T19:52:41.050Z,5.60
2018-01-22T19:55:07.379Z,5.70
2018-01-22T19:57:33.786Z,5.70
2018-01-22T20:00:00.174Z,5.70
2018-01-22T20:02:26.531Z,5.70
2018-01-22T20:04:53.622Z,5.70
2018-01-22T20:07:19.949Z,5.70
2018-01-22T20:09:46.271Z,5.70
2018-01-22T20:12:12.609Z,5.70
2018-01-22T20:14:38.991Z,5.70
2018-01-22T20:17:05.344Z,5.80
2018-01-22T20:19:32.449Z,5.80
2018-01-22T20:21:58.803Z,5.70
2018-01-22T20:24:25.203Z,5.70
2018-01-22T20:26:52.279Z,5.60
2018-01-22T20:29:18.642Z,5.60
2018-01-22T20:31:45.738Z,5.60
2018-01-22T20:34:12.102Z,5.60
2018-01-22T20:36:39.930Z,5.60
2018-01-22T20:39:06.315Z,5.60
2018-01-22T20:41:32.665Z,5.50
2018-01-22T20:43:59.786Z,5.60
2018-01-22T20:46:28.898Z,5.50
2018-01-22T20:48:55.675Z,5.50
2018-01-22T20:51:22.225Z,5.50
2018-01-22T20:53:48.611Z,5.60
2018-01-22T20:56:15.843Z,5.60
2018-01-22T20:58:42.204Z,5.50
2018-01-22T21:01:09.351Z,5.40
2018-01-22T21:03:36.460Z,5.40
2018-01-22T21:06:02.819Z,5.40
2018-01-22T21:08:29.183Z,5.30
2018-01-22T21:10:55.519Z,5.30
2018-01-22T21:13:21.902Z,5.30
2018-01-22T21:15:48.238Z,5.30
2018-01-22T21:18:15.202Z,5.30
2018-01-22T21:20:42.322Z,5.40
2018-01-22T21:23:08.694Z,5.30
2018-01-22T21:25:35.055Z,5.40
2018-01-22T21:28:01.394Z,5.30
2018-01-22T21:30:27.726Z,5.30
2018-01-22T21:32:54.074Z,5.20
2018-01-22T21:35:20.406Z,5.20
2018-01-22T21:37:47.099Z,5.20
2018-01-22T21:40:13.491Z,5.20
2018-01-22T21:42:39.854Z,5.10
2018-01-22T21:45:06.918Z,5.10
2018-01-22T21:47:33.259Z,5.10
2018-01-22T21:49:59.622Z,5.10
2018-01-22T21:52:25.964Z,5.10
2018-01-22T21:54:52.294Z,5.10
2018-01-22T21:57:18.640Z,5.10
2018-01-22T21:59:45.003Z,5.20
2018-01-22T22:02:11.367Z,5.10
2018-01-22T22:04:37.730Z,5.00
2018-01-22T22:07:04.078Z,5.10
2018-01-22T22:09:32.177Z,5.00
2018-01-22T22:11:58.508Z,5.00
2018-01-22T22:14:24.866Z,5.00
2018-01-22T22:16:51.210Z,5.00
2018-01-22T22:19:19.018Z,5.00
2018-01-22T22:21:45.446Z,5.00
2018-01-22T22:24:12.552Z,4.80
2018-01-22T22:26:38.886Z,4.80
2018-01-22T22:29:05.251Z,4.90
2018-01-22T22:31:33.068Z,4.90
2018-01-22T22:34:00.452Z,4.90
2018-01-22T22:36:26.779Z,5.00
2018-01-22T22:38:54.613Z,5.00
2018-01-22T22:41:20.951Z,5.00
2018-01-22T22:43:47.306Z,5.00
2018-01-22T22:46:13.632Z,5.00
2018-01-22T22:48:40.751Z,5.10
2018-01-22T22:51:07.083Z,5.10
2018-01-22T22:53:33.455Z,5.00
2018-01-22T22:55:59.810Z,4.90
2018-01-22T22:58:26.894Z,4.80
2018-01-22T23:00:53.231Z,4.90
2018-01-22T23:03:19.686Z,4.80
2018-01-22T23:05:46.007Z,4.80
2018-01-22T23:08:12.367Z,4.80
2018-01-22T23:10:39.477Z,4.50
2018-01-22T23:13:05.791Z,4.50
2018-01-22T23:15:32.134Z,4.40
2018-01-22T23:17:59.226Z,4.30
2018-01-22T23:20:25.570Z,4.30
2018-01-22T23:22:51.919Z,4.30
2018-01-22T23:25:18.279Z,4.40
2018-01-22T23:27:45.378Z,4.20
2018-01-22T23:30:11.734Z,4.10
2018-01-22T23:32:38.054Z,4.00
2018-01-22T23:35:04.418Z,4.00
2018-01-22T23:37:31.486Z,4.00
2018-01-22T23:39:57.842Z,4.00
2018-01-22T23:42:24.219Z,4.00
2018-01-22T23:44:51.334Z,4.00
2018-01-22T23:47:17.658Z,4.00
2018-01-22T23:49:44.011Z,4.00
2018-01-22T23:52:10.391Z,3.90
2018-01-22T23:54:36.718Z,3.90
2018-01-22T23:57:03.076Z,3.90
2018-01-22T23:59:29.402Z,4.00
